sensor_id;sensor_type;location;lat;lon;timestamp;temperature;humidity
39453;DHT22;25154;-33.684;151.102;2023-04-05T00:03:33;21.00;99.90
39453;DHT22;25154;-33.684;151.102;2023-04-05T00:08:36;20.90;99.90
39453;DHT22;25154;-33.684;151.102;2023-04-05T00:13:39;21.00;99.90
39453;DHT22;25154;-33.684;151.102;2023-04-05T00:18:42;21.10;99.90
39453;DHT22;25154;-33.684;151.102;2023-04-05T00:23:55;21.20;99.90
39453;DHT22;25154;-33.684;151.102;2023-04-05T00:29:01;21.20;99.90
39453;DHT22;25154;-33.684;151.102;2023-04-05T00:34:04;21.10;99.90
39453;DHT22;25154;-33.684;151.102;2023-04-05T00:39:12;20.70;99.90
39453;DHT22;25154;-33.684;151.102;2023-04-05T00:44:15;20.50;99.90
39453;DHT22;25154;-33.684;151.102;2023-04-05T00:49:18;20.00;99.90
39453;DHT22;25154;-33.684;151.102;2023-04-05T00:54:21;19.80;99.90
39453;DHT22;25154;-33.684;151.102;2023-04-05T00:59:24;19.50;99.90
39453;DHT22;25154;-33.684;151.102;2023-04-05T01:04:30;19.30;99.90
39453;DHT22;25154;-33.684;151.102;2023-04-05T01:09:59;18.60;99.90
39453;DHT22;25154;-33.684;151.102;2023-04-05T01:15:01;19.10;99.90
39453;DHT22;25154;-33.684;151.102;2023-04-05T01:20:08;19.30;99.90
39453;DHT22;25154;-33.684;151.102;2023-04-05T01:25:20;19.30;99.90
39453;DHT22;25154;-33.684;151.102;2023-04-05T01:30:35;19.30;99.90
39453;DHT22;25154;-33.684;151.102;2023-04-05T01:41:08;19.00;99.90
39453;DHT22;25154;-33.684;151.102;2023-04-05T01:46:10;19.50;99.90
39453;DHT22;25154;-33.684;151.102;2023-04-05T01:51:14;19.40;99.90
39453;DHT22;25154;-33.684;151.102;2023-04-05T01:56:16;19.30;99.90
39453;DHT22;25154;-33.684;151.102;2023-04-05T02:01:19;19.20;99.90
39453;DHT22;25154;-33.684;151.102;2023-04-05T02:06:22;19.10;99.90
39453;DHT22;25154;-33.684;151.102;2023-04-05T02:11:24;19.00;99.90
39453;DHT22;25154;-33.684;151.102;2023-04-05T02:16:26;19.10;99.90
39453;DHT22;25154;-33.684;151.102;2023-04-05T02:21:29;19.50;99.90
39453;DHT22;25154;-33.684;151.102;2023-04-05T02:26:32;20.40;99.90
39453;DHT22;25154;-33.684;151.102;2023-04-05T02:31:34;21.10;99.90
39453;DHT22;25154;-33.684;151.102;2023-04-05T02:36:37;21.70;99.90
39453;DHT22;25154;-33.684;151.102;2023-04-05T02:41:39;22.40;99.90
39453;DHT22;25154;-33.684;151.102;2023-04-05T02:46:41;22.50;99.90
39453;DHT22;25154;-33.684;151.102;2023-04-05T02:51:46;22.70;99.90
39453;DHT22;25154;-33.684;151.102;2023-04-05T02:56:48;22.50;99.90
39453;DHT22;25154;-33.684;151.102;2023-04-05T03:01:51;22.80;99.90
39453;DHT22;25154;-33.684;151.102;2023-04-05T03:06:54;23.00;99.90
39453;DHT22;25154;-33.684;151.102;2023-04-05T03:12:01;23.30;99.90
39453;DHT22;25154;-33.684;151.102;2023-04-05T03:17:10;24.00;99.90
39453;DHT22;25154;-33.684;151.102;2023-04-05T03:22:13;25.00;99.90
39453;DHT22;25154;-33.684;151.102;2023-04-05T03:27:15;25.80;99.90
39453;DHT22;25154;-33.684;151.102;2023-04-05T03:32:19;25.30;99.90
39453;DHT22;25154;-33.684;151.102;2023-04-05T03:37:22;24.50;99.90
39453;DHT22;25154;-33.684;151.102;2023-04-05T03:42:25;24.60;99.90
39453;DHT22;25154;-33.684;151.102;2023-04-05T03:47:28;25.20;99.90
39453;DHT22;25154;-33.684;151.102;2023-04-05T03:52:30;25.20;99.90
39453;DHT22;25154;-33.684;151.102;2023-04-05T03:57:32;25.50;99.90
39453;DHT22;25154;-33.684;151.102;2023-04-05T04:02:35;26.20;99.90
39453;DHT22;25154;-33.684;151.102;2023-04-05T04:07:38;26.80;99.90
39453;DHT22;25154;-33.684;151.102;2023-04-05T04:12:40;26.00;99.90
39453;DHT22;25154;-33.684;151.102;2023-04-05T04:17:42;26.40;99.90
39453;DHT22;25154;-33.684;151.102;2023-04-05T04:22:45;27.10;99.90
39453;DHT22;25154;-33.684;151.102;2023-04-05T04:27:49;28.00;99.90
39453;DHT22;25154;-33.684;151.102;2023-04-05T04:32:51;28.70;99.90
39453;DHT22;25154;-33.684;151.102;2023-04-05T04:38:04;28.20;99.90
39453;DHT22;25154;-33.684;151.102;2023-04-05T04:43:11;28.30;99.90
39453;DHT22;25154;-33.684;151.102;2023-04-05T04:48:23;28.90;99.90
39453;DHT22;25154;-33.684;151.102;2023-04-05T04:53:25;29.40;99.90
39453;DHT22;25154;-33.684;151.102;2023-04-05T04:58:28;29.60;99.90
39453;DHT22;25154;-33.684;151.102;2023-04-05T05:03:34;29.90;99.90
39453;DHT22;25154;-33.684;151.102;2023-04-05T05:08:40;29.60;99.90
39453;DHT22;25154;-33.684;151.102;2023-04-05T05:13:43;28.70;99.90
39453;DHT22;25154;-33.684;151.102;2023-04-05T05:18:46;29.60;99.90
39453;DHT22;25154;-33.684;151.102;2023-04-05T05:23:49;29.50;99.90
39453;DHT22;25154;-33.684;151.102;2023-04-05T05:28:52;28.40;99.90
39453;DHT22;25154;-33.684;151.102;2023-04-05T05:33:56;26.60;99.90
39453;DHT22;25154;-33.684;151.102;2023-04-05T05:39:00;25.10;99.90
39453;DHT22;25154;-33.684;151.102;2023-04-05T05:44:02;24.20;99.90
39453;DHT22;25154;-33.684;151.102;2023-04-05T05:49:04;24.20;99.90
39453;DHT22;25154;-33.684;151.102;2023-04-05T05:54:07;25.60;99.90
39453;DHT22;25154;-33.684;151.102;2023-04-05T05:59:09;27.40;99.90
39453;DHT22;25154;-33.684;151.102;2023-04-05T06:04:13;29.00;99.90
39453;DHT22;25154;-33.684;151.102;2023-04-05T06:09:17;29.90;99.90
39453;DHT22;25154;-33.684;151.102;2023-04-05T06:14:19;30.00;99.20
39453;DHT22;25154;-33.684;151.102;2023-04-05T06:19:22;30.10;99.90
39453;DHT22;25154;-33.684;151.102;2023-04-05T06:24:24;29.70;99.80
39453;DHT22;25154;-33.684;151.102;2023-04-05T06:29:29;29.10;99.90
39453;DHT22;25154;-33.684;151.102;2023-04-05T06:34:31;27.80;99.90
39453;DHT22;25154;-33.684;151.102;2023-04-05T06:39:34;27.20;99.90
39453;DHT22;25154;-33.684;151.102;2023-04-05T06:44:37;26.50;99.90
39453;DHT22;25154;-33.684;151.102;2023-04-05T06:49:39;25.50;99.90
39453;DHT22;25154;-33.684;151.102;2023-04-05T06:54:42;25.00;99.90
39453;DHT22;25154;-33.684;151.102;2023-04-05T06:59:44;25.30;99.90
39453;DHT22;25154;-33.684;151.102;2023-04-05T07:04:47;25.40;99.90
39453;DHT22;25154;-33.684;151.102;2023-04-05T07:09:51;25.60;99.90
39453;DHT22;25154;-33.684;151.102;2023-04-05T07:14:53;24.70;99.90
39453;DHT22;25154;-33.684;151.102;2023-04-05T07:19:56;23.60;99.90
39453;DHT22;25154;-33.684;151.102;2023-04-05T07:24:59;22.70;99.90
39453;DHT22;25154;-33.684;151.102;2023-04-05T07:30:02;21.90;99.90
39453;DHT22;25154;-33.684;151.102;2023-04-05T07:35:05;21.40;99.90
39453;DHT22;25154;-33.684;151.102;2023-04-05T07:40:08;20.90;99.90
39453;DHT22;25154;-33.684;151.102;2023-04-05T07:45:20;20.60;99.90
39453;DHT22;25154;-33.684;151.102;2023-04-05T07:50:23;20.20;99.90
39453;DHT22;25154;-33.684;151.102;2023-04-05T07:55:26;19.70;99.90
39453;DHT22;25154;-33.684;151.102;2023-04-05T08:00:29;19.70;99.90
39453;DHT22;25154;-33.684;151.102;2023-04-05T08:05:32;19.30;99.90
39453;DHT22;25154;-33.684;151.102;2023-04-05T08:10:38;19.10;99.90
39453;DHT22;25154;-33.684;151.102;2023-04-05T08:15:41;19.00;99.90
39453;DHT22;25154;-33.684;151.102;2023-04-05T08:20:44;18.80;99.90
39453;DHT22;25154;-33.684;151.102;2023-04-05T08:25:47;18.80;99.90
39453;DHT22;25154;-33.684;151.102;2023-04-05T08:30:53;18.70;99.90
39453;DHT22;25154;-33.684;151.102;2023-04-05T08:36:02;18.50;99.90
39453;DHT22;25154;-33.684;151.102;2023-04-05T08:41:20;18.40;99.90
39453;DHT22;25154;-33.684;151.102;2023-04-05T08:46:24;18.30;99.90
39453;DHT22;25154;-33.684;151.102;2023-04-05T08:51:27;18.20;99.90
39453;DHT22;25154;-33.684;151.102;2023-04-05T08:56:34;18.00;99.90
39453;DHT22;25154;-33.684;151.102;2023-04-05T09:01:38;18.00;99.90
39453;DHT22;25154;-33.684;151.102;2023-04-05T09:06:44;17.90;99.90
39453;DHT22;25154;-33.684;151.102;2023-04-05T09:11:47;17.80;99.90
39453;DHT22;25154;-33.684;151.102;2023-04-05T09:16:50;17.70;99.90
39453;DHT22;25154;-33.684;151.102;2023-04-05T09:22:06;17.50;99.90
39453;DHT22;25154;-33.684;151.102;2023-04-05T09:27:19;17.40;99.90
39453;DHT22;25154;-33.684;151.102;2023-04-05T09:32:25;18.70;99.90
39453;DHT22;25154;-33.684;151.102;2023-04-05T09:37:32;17.30;99.90
39453;DHT22;25154;-33.684;151.102;2023-04-05T09:42:43;17.20;99.90
39453;DHT22;25154;-33.684;151.102;2023-04-05T09:47:57;17.10;99.90
39453;DHT22;25154;-33.684;151.102;2023-04-05T09:53:10;17.00;99.90
39453;DHT22;25154;-33.684;151.102;2023-04-05T09:58:20;16.90;99.90
39453;DHT22;25154;-33.684;151.102;2023-04-05T10:03:25;16.90;99.90
39453;DHT22;25154;-33.684;151.102;2023-04-05T10:08:28;16.80;99.90
39453;DHT22;25154;-33.684;151.102;2023-04-05T10:13:31;16.70;99.90
39453;DHT22;25154;-33.684;151.102;2023-04-05T10:18:44;16.60;99.90
39453;DHT22;25154;-33.684;151.102;2023-04-05T10:23:54;16.50;99.90
39453;DHT22;25154;-33.684;151.102;2023-04-05T10:29:05;16.50;99.90
39453;DHT22;25154;-33.684;151.102;2023-04-05T10:34:33;16.40;99.90
39453;DHT22;25154;-33.684;151.102;2023-04-05T10:39:45;16.40;99.90
39453;DHT22;25154;-33.684;151.102;2023-04-05T10:44:52;16.30;99.90
39453;DHT22;25154;-33.684;151.102;2023-04-05T10:50:03;16.20;99.90
39453;DHT22;25154;-33.684;151.102;2023-04-05T10:55:10;16.20;99.90
39453;DHT22;25154;-33.684;151.102;2023-04-05T11:00:14;16.10;99.90
39453;DHT22;25154;-33.684;151.102;2023-04-05T11:05:36;16.10;99.90
39453;DHT22;25154;-33.684;151.102;2023-04-05T11:10:43;16.00;99.90
39453;DHT22;25154;-33.684;151.102;2023-04-05T11:16:08;16.00;99.90
39453;DHT22;25154;-33.684;151.102;2023-04-05T11:21:11;15.90;99.90
39453;DHT22;25154;-33.684;151.102;2023-04-05T11:26:13;15.90;99.90
39453;DHT22;25154;-33.684;151.102;2023-04-05T11:31:18;15.80;99.90
39453;DHT22;25154;-33.684;151.102;2023-04-05T11:36:36;15.80;99.90
39453;DHT22;25154;-33.684;151.102;2023-04-05T11:41:40;15.80;99.90
39453;DHT22;25154;-33.684;151.102;2023-04-05T11:46:44;15.70;99.90
39453;DHT22;25154;-33.684;151.102;2023-04-05T11:51:52;15.60;99.90
39453;DHT22;25154;-33.684;151.102;2023-04-05T11:56:55;15.60;99.90
39453;DHT22;25154;-33.684;151.102;2023-04-05T12:02:02;15.60;99.90
39453;DHT22;25154;-33.684;151.102;2023-04-05T12:07:18;15.60;99.90
39453;DHT22;25154;-33.684;151.102;2023-04-05T12:12:24;15.50;99.90
39453;DHT22;25154;-33.684;151.102;2023-04-05T12:22:47;15.40;99.90
39453;DHT22;25154;-33.684;151.102;2023-04-05T12:27:54;15.30;99.90
39453;DHT22;25154;-33.684;151.102;2023-04-05T12:32:56;15.20;99.90
39453;DHT22;25154;-33.684;151.102;2023-04-05T12:38:01;15.20;99.90
39453;DHT22;25154;-33.684;151.102;2023-04-05T12:43:07;15.10;99.90
39453;DHT22;25154;-33.684;151.102;2023-04-05T12:48:12;15.20;99.90
39453;DHT22;25154;-33.684;151.102;2023-04-05T12:53:17;15.10;99.90
39453;DHT22;25154;-33.684;151.102;2023-04-05T12:58:39;15.10;99.90
39453;DHT22;25154;-33.684;151.102;2023-04-05T13:03:44;15.10;99.90
39453;DHT22;25154;-33.684;151.102;2023-04-05T13:08:48;15.00;99.90
39453;DHT22;25154;-33.684;151.102;2023-04-05T13:13:51;15.10;99.90
39453;DHT22;25154;-33.684;151.102;2023-04-05T13:18:53;15.00;99.90
39453;DHT22;25154;-33.684;151.102;2023-04-05T13:23:59;14.90;99.90
39453;DHT22;25154;-33.684;151.102;2023-04-05T13:29:02;14.80;99.90
39453;DHT22;25154;-33.684;151.102;2023-04-05T13:34:08;14.90;99.90
39453;DHT22;25154;-33.684;151.102;2023-04-05T13:39:10;14.80;99.90
39453;DHT22;25154;-33.684;151.102;2023-04-05T13:44:16;14.80;99.90
39453;DHT22;25154;-33.684;151.102;2023-04-05T13:49:20;14.90;99.90
39453;DHT22;25154;-33.684;151.102;2023-04-05T13:54:37;14.70;99.90
39453;DHT22;25154;-33.684;151.102;2023-04-05T13:59:40;15.60;99.90
39453;DHT22;25154;-33.684;151.102;2023-04-05T14:04:43;14.70;99.90
39453;DHT22;25154;-33.684;151.102;2023-04-05T14:09:48;14.80;99.90
39453;DHT22;25154;-33.684;151.102;2023-04-05T14:14:51;14.80;99.90
39453;DHT22;25154;-33.684;151.102;2023-04-05T14:19:54;14.80;99.90
39453;DHT22;25154;-33.684;151.102;2023-04-05T14:24:57;14.80;99.90
39453;DHT22;25154;-33.684;151.102;2023-04-05T14:30:00;15.00;99.90
39453;DHT22;25154;-33.684;151.102;2023-04-05T14:35:09;15.00;99.90
39453;DHT22;25154;-33.684;151.102;2023-04-05T14:40:12;15.00;99.90
39453;DHT22;25154;-33.684;151.102;2023-04-05T14:45:15;15.00;99.90
39453;DHT22;25154;-33.684;151.102;2023-04-05T14:50:18;15.00;99.90
39453;DHT22;25154;-33.684;151.102;2023-04-05T14:55:21;14.90;99.90
39453;DHT22;25154;-33.684;151.102;2023-04-05T15:00:27;14.80;99.90
39453;DHT22;25154;-33.684;151.102;2023-04-05T15:05:32;14.80;99.90
39453;DHT22;25154;-33.684;151.102;2023-04-05T15:10:39;14.80;99.90
39453;DHT22;25154;-33.684;151.102;2023-04-05T15:15:43;14.70;99.90
39453;DHT22;25154;-33.684;151.102;2023-04-05T15:20:46;14.80;99.90
39453;DHT22;25154;-33.684;151.102;2023-04-05T15:25:48;14.70;99.90
39453;DHT22;25154;-33.684;151.102;2023-04-05T15:30:51;14.70;99.90
39453;DHT22;25154;-33.684;151.102;2023-04-05T15:35:54;14.70;99.90
39453;DHT22;25154;-33.684;151.102;2023-04-05T15:40:57;14.80;99.90
39453;DHT22;25154;-33.684;151.102;2023-04-05T15:46:03;14.80;99.90
39453;DHT22;25154;-33.684;151.102;2023-04-05T15:51:05;14.70;99.90
39453;DHT22;25154;-33.684;151.102;2023-04-05T15:56:08;14.70;99.90
39453;DHT22;25154;-33.684;151.102;2023-04-05T16:01:12;14.70;99.90
39453;DHT22;25154;-33.684;151.102;2023-04-05T16:06:15;14.60;99.90
39453;DHT22;25154;-33.684;151.102;2023-04-05T16:11:17;14.70;99.90
39453;DHT22;25154;-33.684;151.102;2023-04-05T16:16:20;14.60;99.90
39453;DHT22;25154;-33.684;151.102;2023-04-05T16:21:25;14.70;99.90
39453;DHT22;25154;-33.684;151.102;2023-04-05T16:26:28;14.70;99.90
39453;DHT22;25154;-33.684;151.102;2023-04-05T16:31:32;14.80;99.90
39453;DHT22;25154;-33.684;151.102;2023-04-05T16:36:36;15.00;99.90
39453;DHT22;25154;-33.684;151.102;2023-04-05T16:41:39;15.00;99.90
39453;DHT22;25154;-33.684;151.102;2023-04-05T16:46:42;15.00;99.90
39453;DHT22;25154;-33.684;151.102;2023-04-05T16:51:46;14.90;99.90
39453;DHT22;25154;-33.684;151.102;2023-04-05T16:56:49;14.80;99.90
39453;DHT22;25154;-33.684;151.102;2023-04-05T17:01:52;14.70;99.90
39453;DHT22;25154;-33.684;151.102;2023-04-05T17:06:55;14.60;99.90
39453;DHT22;25154;-33.684;151.102;2023-04-05T17:11:57;14.50;99.90
39453;DHT22;25154;-33.684;151.102;2023-04-05T17:17:00;14.50;99.90
39453;DHT22;25154;-33.684;151.102;2023-04-05T17:22:03;14.30;99.90
39453;DHT22;25154;-33.684;151.102;2023-04-05T17:27:06;14.20;99.90
39453;DHT22;25154;-33.684;151.102;2023-04-05T17:32:09;14.20;99.90
39453;DHT22;25154;-33.684;151.102;2023-04-05T17:37:11;14.30;99.90
39453;DHT22;25154;-33.684;151.102;2023-04-05T17:42:14;14.20;99.90
39453;DHT22;25154;-33.684;151.102;2023-04-05T17:47:18;14.20;99.90
39453;DHT22;25154;-33.684;151.102;2023-04-05T17:52:20;14.20;99.90
39453;DHT22;25154;-33.684;151.102;2023-04-05T17:57:23;14.10;99.90
39453;DHT22;25154;-33.684;151.102;2023-04-05T18:02:26;14.00;99.90
39453;DHT22;25154;-33.684;151.102;2023-04-05T18:07:29;14.00;99.90
39453;DHT22;25154;-33.684;151.102;2023-04-05T18:12:32;14.00;99.90
39453;DHT22;25154;-33.684;151.102;2023-04-05T18:17:35;13.90;99.90
39453;DHT22;25154;-33.684;151.102;2023-04-05T18:22:41;13.90;99.90
39453;DHT22;25154;-33.684;151.102;2023-04-05T18:27:44;13.90;99.90
39453;DHT22;25154;-33.684;151.102;2023-04-05T18:32:46;13.90;99.90
39453;DHT22;25154;-33.684;151.102;2023-04-05T18:37:50;13.90;99.90
39453;DHT22;25154;-33.684;151.102;2023-04-05T18:42:52;13.80;99.90
39453;DHT22;25154;-33.684;151.102;2023-04-05T18:47:55;13.70;99.90
39453;DHT22;25154;-33.684;151.102;2023-04-05T18:52:57;13.90;99.90
39453;DHT22;25154;-33.684;151.102;2023-04-05T18:57:59;13.90;99.90
39453;DHT22;25154;-33.684;151.102;2023-04-05T19:03:03;13.90;99.90
39453;DHT22;25154;-33.684;151.102;2023-04-05T19:08:05;13.80;99.90
39453;DHT22;25154;-33.684;151.102;2023-04-05T19:13:07;13.60;99.90
39453;DHT22;25154;-33.684;151.102;2023-04-05T19:18:10;13.60;99.90
39453;DHT22;25154;-33.684;151.102;2023-04-05T19:23:12;13.60;99.90
39453;DHT22;25154;-33.684;151.102;2023-04-05T19:28:15;13.50;99.90
39453;DHT22;25154;-33.684;151.102;2023-04-05T19:33:19;13.60;99.90
39453;DHT22;25154;-33.684;151.102;2023-04-05T19:38:22;13.50;99.90
39453;DHT22;25154;-33.684;151.102;2023-04-05T19:43:25;13.40;99.90
39453;DHT22;25154;-33.684;151.102;2023-04-05T19:48:39;13.50;99.90
39453;DHT22;25154;-33.684;151.102;2023-04-05T19:53:50;13.50;99.90
39453;DHT22;25154;-33.684;151.102;2023-04-05T19:59:01;13.50;99.90
39453;DHT22;25154;-33.684;151.102;2023-04-05T20:04:17;13.60;99.90
39453;DHT22;25154;-33.684;151.102;2023-04-05T20:09:23;13.90;99.90
39453;DHT22;25154;-33.684;151.102;2023-04-05T20:14:44;13.70;99.90
39453;DHT22;25154;-33.684;151.102;2023-04-05T20:19:56;13.90;99.90
39453;DHT22;25154;-33.684;151.102;2023-04-05T20:25:35;14.10;99.90
39453;DHT22;25154;-33.684;151.102;2023-04-05T20:30:33;14.40;99.90
39453;DHT22;25154;-33.684;151.102;2023-04-05T20:35:36;14.60;99.90
39453;DHT22;25154;-33.684;151.102;2023-04-05T20:40:39;14.60;99.90
39453;DHT22;25154;-33.684;151.102;2023-04-05T20:45:42;14.70;99.90
39453;DHT22;25154;-33.684;151.102;2023-04-05T20:50:45;14.80;99.90
39453;DHT22;25154;-33.684;151.102;2023-04-05T20:55:47;14.90;99.90
39453;DHT22;25154;-33.684;151.102;2023-04-05T21:00:50;15.00;99.90
39453;DHT22;25154;-33.684;151.102;2023-04-05T21:05:52;15.30;99.90
39453;DHT22;25154;-33.684;151.102;2023-04-05T21:10:55;15.50;99.90
39453;DHT22;25154;-33.684;151.102;2023-04-05T21:15:58;15.80;99.90
39453;DHT22;25154;-33.684;151.102;2023-04-05T21:21:03;16.00;99.90
39453;DHT22;25154;-33.684;151.102;2023-04-05T21:31:15;16.30;99.90
39453;DHT22;25154;-33.684;151.102;2023-04-05T21:36:18;16.40;99.90
39453;DHT22;25154;-33.684;151.102;2023-04-05T21:41:21;16.50;99.90
39453;DHT22;25154;-33.684;151.102;2023-04-05T21:46:24;16.60;99.90
39453;DHT22;25154;-33.684;151.102;2023-04-05T21:51:27;16.80;99.90
39453;DHT22;25154;-33.684;151.102;2023-04-05T21:56:29;17.00;99.90
39453;DHT22;25154;-33.684;151.102;2023-04-05T22:01:32;17.20;99.90
39453;DHT22;25154;-33.684;151.102;2023-04-05T22:06:35;17.30;99.90
39453;DHT22;25154;-33.684;151.102;2023-04-05T22:11:37;17.50;99.90
39453;DHT22;25154;-33.684;151.102;2023-04-05T22:16:40;17.60;99.90
39453;DHT22;25154;-33.684;151.102;2023-04-05T22:21:44;17.80;99.90
39453;DHT22;25154;-33.684;151.102;2023-04-05T22:26:46;18.00;99.90
39453;DHT22;25154;-33.684;151.102;2023-04-05T22:31:49;18.10;99.90
39453;DHT22;25154;-33.684;151.102;2023-04-05T22:36:52;19.10;99.90
39453;DHT22;25154;-33.684;151.102;2023-04-05T22:41:55;18.30;99.90
39453;DHT22;25154;-33.684;151.102;2023-04-05T22:46:58;18.30;99.90
39453;DHT22;25154;-33.684;151.102;2023-04-05T22:52:01;18.30;99.90
39453;DHT22;25154;-33.684;151.102;2023-04-05T22:57:03;18.40;99.90
39453;DHT22;25154;-33.684;151.102;2023-04-05T23:02:06;18.40;99.90
39453;DHT22;25154;-33.684;151.102;2023-04-05T23:07:09;18.40;99.90
39453;DHT22;25154;-33.684;151.102;2023-04-05T23:12:12;18.10;99.90
39453;DHT22;25154;-33.684;151.102;2023-04-05T23:17:15;18.00;99.90
39453;DHT22;25154;-33.684;151.102;2023-04-05T23:22:18;17.90;99.90
39453;DHT22;25154;-33.684;151.102;2023-04-05T23:27:20;18.20;99.90
39453;DHT22;25154;-33.684;151.102;2023-04-05T23:32:23;18.40;99.90
39453;DHT22;25154;-33.684;151.102;2023-04-05T23:37:26;18.40;99.90
39453;DHT22;25154;-33.684;151.102;2023-04-05T23:42:29;18.40;99.90
39453;DHT22;25154;-33.684;151.102;2023-04-05T23:47:32;18.50;99.90
39453;DHT22;25154;-33.684;151.102;2023-04-05T23:52:35;18.70;99.90
39453;DHT22;25154;-33.684;151.102;2023-04-05T23:57:38;18.90;99.90
